Time;durP1;ratioP1;P1;durP2;ratioP2;P2;SDS_P1;SDS_P2;PMS_P1;PMS_P2;Temp;Humidity;BMP_temperature;BMP_pressure;BME280_temperature;BME280_humidity;BME280_pressure;Samples;Min_cycle;Max_cycle;Signal;HPM_P1;HPM_P2
2021/11/22 00:01:52;;;;;;;19.60;16.20;;;7.00;99.90;;;;;;4993944;28;20209;-63
2021/11/22 00:04:18;;;;;;;20.87;15.50;;;6.90;99.90;;;;;;4994111;28;20169;-63
2021/11/22 00:06:43;;;;;;;19.87;16.63;;;7.00;99.90;;;;;;4994237;28;20475;-63
2021/11/22 00:09:09;;;;;;;23.30;17.70;;;7.20;99.90;;;;;;4994138;28;20206;-63
2021/11/22 00:11:35;;;;;;;19.47;14.73;;;7.20;99.90;;;;;;4993315;28;20514;-63
2021/11/22 00:14:04;;;;;;;20.20;17.37;;;7.40;99.90;;;;;;4994519;28;20225;-63
2021/11/22 00:16:29;;;;;;;22.53;16.93;;;7.30;99.90;;;;;;4993870;28;20197;-63
2021/11/22 00:18:55;;;;;;;24.23;17.40;;;7.30;99.90;;;;;;4990629;28;20429;-63
2021/11/22 00:21:21;;;;;;;20.87;16.30;;;7.30;99.90;;;;;;4994374;28;20611;-63
2021/11/22 00:23:47;;;;;;;19.20;15.97;;;7.30;99.90;;;;;;4994089;28;20887;-63
2021/11/22 00:26:13;;;;;;;20.20;17.70;;;7.30;99.90;;;;;;4994120;28;20408;-63
2021/11/22 00:28:38;;;;;;;20.07;16.60;;;7.20;99.90;;;;;;4994108;28;20443;-63
2021/11/22 00:31:04;;;;;;;23.37;19.63;;;7.30;99.90;;;;;;4993498;28;20175;-62
2021/11/22 00:33:30;;;;;;;22.90;17.53;;;7.40;99.90;;;;;;4994114;28;20265;-62
2021/11/22 00:35:56;;;;;;;20.90;16.33;;;7.40;99.90;;;;;;4994339;28;20208;-62
2021/11/22 00:38:21;;;;;;;20.00;16.40;;;7.50;99.90;;;;;;4993990;28;20925;-62
2021/11/22 00:40:47;;;;;;;22.10;17.33;;;7.50;99.90;;;;;;4994466;28;20177;-63
2021/11/22 00:43:13;;;;;;;22.17;16.43;;;7.50;99.90;;;;;;4994124;28;20177;-62
2021/11/22 00:45:39;;;;;;;26.13;19.20;;;7.50;99.90;;;;;;4995274;28;20410;-62
2021/11/22 00:48:05;;;;;;;25.10;19.43;;;7.50;99.90;;;;;;5003370;28;20216;-66
2021/11/22 00:50:34;;;;;;;28.73;20.80;;;7.40;99.90;;;;;;5004396;28;20428;-62
2021/11/22 00:53:00;;;;;;;26.77;18.00;;;7.20;99.90;;;;;;5005549;28;20410;-63
2021/11/22 00:55:26;;;;;;;25.90;17.53;;;7.10;99.90;;;;;;5005202;28;20524;-63
2021/11/22 00:57:51;;;;;;;28.13;19.87;;;6.90;99.90;;;;;;5003363;28;20209;-63
2021/11/22 01:00:19;;;;;;;27.00;18.73;;;6.90;99.90;;;;;;5001718;28;20171;-63
2021/11/22 01:02:45;;;;;;;25.63;20.10;;;6.80;99.90;;;;;;4994108;28;20188;-62
2021/11/22 01:05:11;;;;;;;34.90;21.57;;;6.80;99.90;;;;;;4993993;28;20406;-64
2021/11/22 01:07:37;;;;;;;32.17;22.47;;;7.00;99.90;;;;;;4994087;28;20201;-63
2021/11/22 01:10:04;;;;;;;26.70;17.83;;;7.10;99.90;;;;;;4994467;28;20784;-63
2021/11/22 01:12:30;;;;;;;31.10;19.87;;;7.20;99.90;;;;;;4994579;28;20186;-64
2021/11/22 01:14:58;;;;;;;31.07;21.50;;;7.10;99.90;;;;;;4994162;28;20808;-63
2021/11/22 01:17:23;;;;;;;29.17;19.87;;;7.10;99.90;;;;;;4994077;28;20471;-63
2021/11/22 01:19:52;;;;;;;29.20;19.70;;;7.20;99.90;;;;;;4994400;28;20804;-63
2021/11/22 01:22:19;;;;;;;28.27;19.47;;;7.30;99.90;;;;;;4994235;28;20176;-63
2021/11/22 01:24:45;;;;;;;30.30;18.97;;;7.40;99.90;;;;;;4994403;28;20898;-63
2021/11/22 01:27:10;;;;;;;26.53;19.27;;;7.40;99.90;;;;;;5003790;28;20418;-63
2021/11/22 01:29:36;;;;;;;30.77;20.00;;;7.30;99.90;;;;;;5004435;28;20432;-64
2021/11/22 01:32:02;;;;;;;29.07;20.60;;;7.20;99.90;;;;;;5004768;28;20178;-63
2021/11/22 01:34:28;;;;;;;27.50;20.00;;;7.20;99.90;;;;;;5003827;28;20263;-63
2021/11/22 01:36:55;;;;;;;29.00;20.17;;;7.30;99.90;;;;;;5002750;28;20240;-63
2021/11/22 01:39:20;;;;;;;31.27;20.40;;;7.10;99.90;;;;;;5002505;28;20438;-63
2021/11/22 01:41:46;;;;;;;31.90;21.10;;;7.10;99.90;;;;;;5004929;28;20601;-63
2021/11/22 01:44:12;;;;;;;29.00;20.80;;;7.20;99.90;;;;;;5006934;28;20223;-64
2021/11/22 01:46:37;;;;;;;35.03;25.17;;;7.20;99.90;;;;;;4999614;28;20165;-64
2021/11/22 01:49:03;;;;;;;34.70;23.60;;;7.20;99.90;;;;;;4996388;28;20509;-63
2021/11/22 01:51:30;;;;;;;34.10;21.37;;;7.00;99.90;;;;;;4997111;28;20182;-64
2021/11/22 01:53:57;;;;;;;26.53;19.60;;;7.00;99.90;;;;;;4996954;28;20751;-64
2021/11/22 01:56:22;;;;;;;32.47;21.43;;;7.10;99.90;;;;;;4997122;28;20453;-64
2021/11/22 01:58:49;;;;;;;30.73;21.60;;;7.00;99.90;;;;;;4996352;28;20429;-63
2021/11/22 02:01:15;;;;;;;29.73;20.30;;;7.00;99.90;;;;;;4996348;28;20172;-63
2021/11/22 02:03:41;;;;;;;30.70;22.53;;;7.00;99.90;;;;;;4996336;28;20913;-64
2021/11/22 02:06:07;;;;;;;31.70;20.83;;;7.30;99.90;;;;;;4996375;28;20417;-63
2021/11/22 02:08:33;;;;;;;30.60;21.93;;;7.20;99.90;;;;;;4996327;28;20432;-64
2021/11/22 02:10:58;;;;;;;26.40;19.73;;;7.40;99.90;;;;;;4996517;28;20413;-64
2021/11/22 02:13:24;;;;;;;25.90;20.43;;;7.30;99.90;;;;;;4996355;28;20206;-63
2021/11/22 02:15:49;;;;;;;28.50;20.13;;;7.40;99.90;;;;;;4995988;28;20202;-63
2021/11/22 02:18:18;;;;;;;29.13;21.20;;;7.40;99.90;;;;;;4985209;28;20280;-63
2021/11/22 02:20:45;;;;;;;31.60;20.70;;;7.40;99.90;;;;;;4995923;28;20225;-63
2021/11/22 02:23:12;;;;;;;29.60;18.70;;;7.40;99.90;;;;;;4996454;28;20776;-63
2021/11/22 02:25:40;;;;;;;29.47;21.07;;;7.30;99.90;;;;;;4996250;28;20401;-63
2021/11/22 02:28:08;;;;;;;26.53;21.00;;;7.20;99.90;;;;;;4996013;28;20494;-63
2021/11/22 02:30:38;;;;;;;26.67;20.23;;;7.20;99.90;;;;;;4996670;28;20408;-63
2021/11/22 02:33:09;;;;;;;31.57;22.60;;;6.90;99.90;;;;;;4995705;28;20408;-63
2021/11/22 02:35:43;;;;;;;26.93;19.80;;;6.90;99.90;;;;;;5004148;28;20556;-63
2021/11/22 02:38:09;;;;;;;27.37;20.03;;;6.70;99.90;;;;;;5015491;28;20417;-64
2021/11/22 02:40:35;;;;;;;28.90;20.93;;;6.70;99.90;;;;;;5015601;28;20421;-63
2021/11/22 02:43:00;;;;;;;30.30;18.30;;;6.90;99.90;;;;;;5015698;28;20579;-63
2021/11/22 02:45:26;;;;;;;36.10;21.80;;;7.00;99.90;;;;;;5015475;28;20180;-63
2021/11/22 02:50:21;;;;;;;28.47;19.80;;;7.30;99.90;;;;;;5031993;23;20476;-61
2021/11/22 02:52:49;;;;;;;32.23;21.30;;;6.90;99.90;;;;;;4997281;28;20210;-59
2021/11/22 02:55:17;;;;;;;33.63;23.27;;;6.90;99.90;;;;;;5006185;28;20921;-59
2021/11/22 02:57:44;;;;;;;28.23;20.20;;;6.90;99.90;;;;;;5015394;28;20425;-61
2021/11/22 03:00:42;;;;;;;36.20;22.03;;;6.90;99.90;;;;;;5015516;28;20426;-60
2021/11/22 03:03:07;;;;;;;37.93;24.43;;;6.70;99.90;;;;;;4981023;28;20411;-61
2021/11/22 03:05:33;;;;;;;32.70;22.67;;;6.70;99.90;;;;;;5014711;28;20458;-60
2021/11/22 03:07:59;;;;;;;29.17;22.13;;;6.70;99.90;;;;;;5015054;28;20178;-58
2021/11/22 03:10:28;;;;;;;28.30;20.03;;;6.80;99.90;;;;;;5014451;28;20252;-61
2021/11/22 03:12:54;;;;;;;33.37;22.40;;;7.00;99.90;;;;;;5014695;28;20416;-61
2021/11/22 03:15:21;;;;;;;35.20;22.53;;;7.10;99.90;;;;;;5014559;28;20455;-61
2021/11/22 03:17:47;;;;;;;34.50;24.27;;;7.00;99.90;;;;;;4997163;28;20410;-61
2021/11/22 03:20:16;;;;;;;34.10;22.27;;;7.00;99.90;;;;;;4997053;28;20432;-61
2021/11/22 03:22:43;;;;;;;42.20;26.40;;;7.00;99.90;;;;;;5014746;28;20410;-61
2021/11/22 03:25:11;;;;;;;32.67;22.90;;;7.00;99.90;;;;;;5014195;28;20780;-60
2021/11/22 03:27:39;;;;;;;44.50;26.37;;;7.20;99.90;;;;;;5014531;28;20513;-60
2021/11/22 03:30:05;;;;;;;39.03;24.77;;;7.10;99.90;;;;;;5014194;28;20442;-60
2021/11/22 03:32:31;;;;;;;35.10;21.80;;;7.00;99.90;;;;;;5014349;28;20776;-62
2021/11/22 03:34:57;;;;;;;32.73;22.30;;;6.90;99.90;;;;;;4996611;28;20409;-60
2021/11/22 03:37:23;;;;;;;32.30;23.67;;;7.10;99.90;;;;;;5014363;28;20185;-61
2021/11/22 03:39:51;;;;;;;31.40;22.60;;;7.20;99.90;;;;;;5013610;28;20425;-60
2021/11/22 03:42:18;;;;;;;36.90;24.43;;;7.30;99.90;;;;;;5013843;28;20412;-59
2021/11/22 03:44:45;;;;;;;35.60;24.57;;;7.20;99.90;;;;;;5014304;28;20404;-61
2021/11/22 03:47:11;;;;;;;35.47;24.10;;;7.20;99.90;;;;;;5012809;28;20412;-61
2021/11/22 03:49:37;;;;;;;34.30;23.60;;;7.00;99.90;;;;;;5013671;28;20501;-60
2021/11/22 03:52:03;;;;;;;38.50;25.00;;;6.80;99.90;;;;;;4996142;28;20414;-61
2021/11/22 03:54:30;;;;;;;32.43;22.17;;;6.80;99.90;;;;;;5013864;28;20404;-61
2021/11/22 03:56:56;;;;;;;30.20;20.63;;;6.90;99.90;;;;;;4995846;28;20509;-60
2021/11/22 03:59:22;;;;;;;31.90;23.83;;;6.80;99.90;;;;;;5014022;28;20428;-59
2021/11/22 04:01:48;;;;;;;23.20;18.80;;;6.80;99.90;;;;;;4995888;28;20413;-61
2021/11/22 04:04:13;;;;;;;27.60;20.53;;;7.10;99.90;;;;;;4996052;28;20439;-61
2021/11/22 04:06:39;;;;;;;34.63;22.80;;;7.00;99.90;;;;;;5013961;28;20412;-61
2021/11/22 04:09:06;;;;;;;34.83;23.53;;;7.00;99.90;;;;;;5014435;28;20197;-60
2021/11/22 04:11:34;;;;;;;32.20;23.47;;;7.00;99.90;;;;;;5013526;28;20176;-63
2021/11/22 04:14:00;;;;;;;34.07;23.17;;;6.90;99.90;;;;;;5014188;28;20414;-59
2021/11/22 04:16:26;;;;;;;30.40;22.23;;;7.10;99.90;;;;;;4995783;28;20818;-60
2021/11/22 04:18:52;;;;;;;33.27;24.50;;;7.10;99.90;;;;;;5009993;28;20423;-61
2021/11/22 04:21:20;;;;;;;33.70;22.50;;;7.20;99.90;;;;;;5013480;28;20163;-61
2021/11/22 04:23:46;;;;;;;31.10;22.27;;;7.20;99.90;;;;;;5013718;28;20164;-62
2021/11/22 04:26:12;;;;;;;31.63;21.33;;;7.00;99.90;;;;;;5013279;28;20988;-59
2021/11/22 04:28:38;;;;;;;27.07;21.23;;;7.00;99.90;;;;;;5013679;28;20428;-61
2021/11/22 04:31:05;;;;;;;32.47;21.77;;;6.80;99.90;;;;;;5013392;28;20404;-62
2021/11/22 04:33:31;;;;;;;27.30;21.90;;;6.80;99.90;;;;;;5013317;28;20419;-61
2021/11/22 04:35:57;;;;;;;31.00;21.90;;;7.00;99.90;;;;;;5013232;28;20450;-62
2021/11/22 04:38:23;;;;;;;29.73;21.83;;;7.20;99.90;;;;;;5013171;28;20427;-61
2021/11/22 04:40:49;;;;;;;28.10;21.00;;;7.00;99.90;;;;;;5012918;28;20259;-60
2021/11/22 04:43:14;;;;;;;25.87;19.70;;;6.80;99.90;;;;;;5013517;28;20170;-63
2021/11/22 04:45:40;;;;;;;26.37;19.37;;;6.90;99.90;;;;;;5013268;28;20230;-61
2021/11/22 04:48:06;;;;;;;33.00;23.17;;;6.70;99.90;;;;;;5012864;28;20166;-61
2021/11/22 04:50:32;;;;;;;23.07;17.60;;;6.60;99.90;;;;;;5013504;28;20161;-60
2021/11/22 04:52:59;;;;;;;25.83;21.40;;;6.70;99.90;;;;;;5013440;28;20454;-61
2021/11/22 04:55:25;;;;;;;30.17;20.37;;;6.90;99.90;;;;;;5012724;28;20416;-61
2021/11/22 04:57:51;;;;;;;30.93;20.23;;;6.90;99.90;;;;;;5013307;28;20858;-61
2021/11/22 05:00:19;;;;;;;26.33;19.70;;;6.90;99.90;;;;;;5012927;28;20425;-61
2021/11/22 05:02:45;;;;;;;24.13;17.97;;;6.90;99.90;;;;;;5012762;28;20406;-61
2021/11/22 05:05:12;;;;;;;23.20;18.13;;;6.70;99.90;;;;;;5012942;28;20950;-61
2021/11/22 05:07:39;;;;;;;24.03;17.37;;;6.70;99.90;;;;;;5012955;28;20416;-61
2021/11/22 05:10:06;;;;;;;26.80;20.00;;;6.90;99.90;;;;;;5012832;28;20458;-60
2021/11/22 05:12:31;;;;;;;22.80;17.37;;;7.00;99.90;;;;;;5012791;28;20485;-61
2021/11/22 05:14:58;;;;;;;23.00;18.20;;;7.10;99.90;;;;;;5013137;28;20887;-61
2021/11/22 05:17:24;;;;;;;23.70;17.97;;;7.00;99.90;;;;;;5014664;28;20566;-60
2021/11/22 05:19:49;;;;;;;23.73;17.30;;;6.90;99.90;;;;;;5016574;28;20521;-59
2021/11/22 05:22:21;;;;;;;24.33;17.30;;;6.90;99.90;;;;;;5016916;28;20410;-59
2021/11/22 05:24:49;;;;;;;23.77;18.20;;;6.80;99.90;;;;;;4998885;28;20629;-60
2021/11/22 05:27:23;;;;;;;22.07;17.93;;;6.80;99.90;;;;;;5016460;28;20826;-60
2021/11/22 05:29:49;;;;;;;23.37;17.00;;;6.90;99.90;;;;;;5016620;28;20978;-61
2021/11/22 05:32:16;;;;;;;21.60;16.77;;;7.00;99.90;;;;;;5016503;28;20497;-59
2021/11/22 05:34:48;;;;;;;21.93;17.10;;;7.20;99.90;;;;;;5016116;28;20173;-59
2021/11/22 05:37:14;;;;;;;23.37;18.00;;;7.20;99.90;;;;;;5016637;28;20474;-60
2021/11/22 05:39:40;;;;;;;25.73;17.63;;;7.10;99.90;;;;;;5016324;28;20424;-61
2021/11/22 05:42:06;;;;;;;25.07;19.37;;;7.10;99.90;;;;;;4998650;28;20542;-61
2021/11/22 05:44:33;;;;;;;26.80;19.03;;;7.20;99.90;;;;;;5016143;28;20439;-61
2021/11/22 05:47:00;;;;;;;25.17;18.37;;;7.20;99.90;;;;;;5012875;28;20650;-61
2021/11/22 05:49:27;;;;;;;24.20;19.07;;;7.30;99.90;;;;;;5007352;28;20559;-61
2021/11/22 05:51:53;;;;;;;19.60;16.63;;;7.10;99.90;;;;;;5016068;28;20919;-59
2021/11/22 05:54:21;;;;;;;22.90;17.03;;;6.90;99.90;;;;;;5016032;28;20413;-59
2021/11/22 05:56:47;;;;;;;21.83;16.43;;;6.90;99.90;;;;;;5015802;28;20283;-60
2021/11/22 05:59:13;;;;;;;17.60;14.57;;;6.90;99.90;;;;;;5016205;28;20514;-60
2021/11/22 06:01:38;;;;;;;22.33;17.63;;;7.00;99.90;;;;;;5016434;28;20712;-61
2021/11/22 06:04:04;;;;;;;18.63;14.30;;;7.10;99.90;;;;;;5015811;28;20173;-61
2021/11/22 06:06:29;;;;;;;21.90;16.77;;;7.20;99.90;;;;;;5015869;28;20236;-62
2021/11/22 06:08:55;;;;;;;19.20;15.63;;;7.10;99.90;;;;;;5016231;28;20243;-60
2021/11/22 06:11:21;;;;;;;20.30;15.70;;;7.10;99.90;;;;;;5016022;28;20172;-61
2021/11/22 06:13:46;;;;;;;21.57;15.30;;;7.10;99.90;;;;;;5013084;28;20174;-61
2021/11/22 06:16:12;;;;;;;18.43;14.93;;;7.00;99.90;;;;;;5015419;28;20272;-59
2021/11/22 06:18:37;;;;;;;19.13;15.87;;;6.90;99.90;;;;;;5015371;28;20185;-62
2021/11/22 06:21:03;;;;;;;18.90;14.57;;;7.10;99.90;;;;;;5015558;28;20191;-62
2021/11/22 06:23:29;;;;;;;19.47;14.80;;;7.20;99.90;;;;;;5015358;28;20193;-62
2021/11/22 06:25:55;;;;;;;14.10;12.03;;;7.20;99.90;;;;;;5015204;28;20216;-61
2021/11/22 06:28:20;;;;;;;14.50;12.20;;;7.20;99.90;;;;;;5014494;28;20655;-61
2021/11/22 06:30:46;;;;;;;18.13;14.63;;;7.10;99.90;;;;;;5015725;28;20233;-61
2021/11/22 06:33:12;;;;;;;21.37;15.37;;;7.20;99.90;;;;;;5015384;28;20620;-62
2021/11/22 06:35:38;;;;;;;16.63;12.77;;;7.10;99.90;;;;;;5015490;28;20453;-61
2021/11/22 06:38:05;;;;;;;20.10;14.50;;;7.10;99.90;;;;;;5015284;28;20409;-61
2021/11/22 06:40:31;;;;;;;13.97;12.30;;;7.20;99.90;;;;;;5016259;28;20649;-60
2021/11/22 06:42:57;;;;;;;17.13;13.13;;;7.10;99.90;;;;;;5015765;28;20405;-60
2021/11/22 06:45:23;;;;;;;17.70;13.43;;;7.10;99.90;;;;;;5014967;28;20422;-60
2021/11/22 06:47:49;;;;;;;16.40;12.17;;;7.20;99.90;;;;;;5014948;28;20208;-59
2021/11/22 06:50:17;;;;;;;17.23;13.40;;;7.30;99.90;;;;;;5014837;28;20444;-61
2021/11/22 06:52:43;;;;;;;20.77;15.37;;;7.40;99.90;;;;;;5014855;28;20413;-61
2021/11/22 06:55:08;;;;;;;18.90;14.00;;;7.50;99.90;;;;;;5014893;28;20784;-61
2021/11/22 06:57:34;;;;;;;17.60;15.03;;;7.60;99.90;;;;;;5014848;28;20196;-61
2021/11/22 07:00:00;;;;;;;19.37;15.00;;;7.70;99.90;;;;;;4997329;28;20731;-61
2021/11/22 07:02:26;;;;;;;16.13;11.20;;;7.80;99.90;;;;;;5014589;28;20167;-61
2021/11/22 07:04:52;;;;;;;13.90;11.47;;;7.70;99.90;;;;;;5014543;28;20268;-61
2021/11/22 07:07:18;;;;;;;14.00;10.70;;;7.50;99.90;;;;;;4996818;28;20203;-60
2021/11/22 07:09:44;;;;;;;12.80;11.00;;;7.40;99.90;;;;;;5014755;28;20836;-62
2021/11/22 07:12:10;;;;;;;12.60;9.70;;;7.40;99.90;;;;;;5014359;28;20184;-60
2021/11/22 07:14:38;;;;;;;12.70;10.53;;;7.30;99.90;;;;;;5014468;28;20408;-61
2021/11/22 07:17:04;;;;;;;12.43;10.00;;;7.40;99.90;;;;;;5014682;28;20343;-61
2021/11/22 07:19:30;;;;;;;11.80;10.10;;;7.60;99.90;;;;;;5013916;28;20421;-61
2021/11/22 07:21:57;;;;;;;11.70;9.73;;;7.70;99.90;;;;;;5014376;28;20425;-62
2021/11/22 07:24:22;;;;;;;12.77;10.03;;;7.70;99.90;;;;;;5014560;28;20409;-62
2021/11/22 07:26:48;;;;;;;14.07;9.70;;;7.70;99.90;;;;;;5014011;28;20447;-60
2021/11/22 07:29:16;;;;;;;10.97;9.37;;;7.70;99.90;;;;;;5014712;28;20279;-60
2021/11/22 07:31:42;;;;;;;11.10;9.40;;;7.80;99.90;;;;;;5014287;28;20823;-60
2021/11/22 07:34:08;;;;;;;15.57;10.20;;;7.60;99.90;;;;;;5013786;28;20904;-61
2021/11/22 07:36:34;;;;;;;14.07;10.13;;;7.30;99.90;;;;;;5013933;28;20507;-60
2021/11/22 07:38:59;;;;;;;12.60;9.70;;;7.20;99.90;;;;;;5013621;28;20185;-60
2021/11/22 07:41:25;;;;;;;12.10;9.00;;;7.00;99.90;;;;;;5012505;28;20482;-61
2021/11/22 07:43:51;;;;;;;12.70;11.20;;;7.00;99.90;;;;;;5013990;28;20193;-61
2021/11/22 07:46:17;;;;;;;16.30;12.83;;;7.10;99.90;;;;;;5014165;28;20265;-61
2021/11/22 07:48:42;;;;;;;13.83;10.83;;;7.20;99.90;;;;;;5013481;28;21035;-61
2021/11/22 07:51:08;;;;;;;13.97;10.60;;;7.10;99.90;;;;;;4996188;28;20192;-61
2021/11/22 07:53:35;;;;;;;11.70;9.80;;;7.30;99.90;;;;;;5014107;28;20567;-60
2021/11/22 07:56:00;;;;;;;10.60;8.70;;;7.30;99.90;;;;;;5013482;28;20203;-61
2021/11/22 07:58:26;;;;;;;12.10;10.57;;;7.00;99.90;;;;;;5014055;28;20500;-58
2021/11/22 08:00:52;;;;;;;9.87;8.80;;;7.10;99.90;;;;;;5014072;28;20166;-60
2021/11/22 08:03:18;;;;;;;12.33;10.20;;;7.20;99.90;;;;;;4995862;28;20593;-58
2021/11/22 08:05:44;;;;;;;11.90;8.77;;;7.20;99.90;;;;;;4996344;28;20164;-58
2021/11/22 08:08:10;;;;;;;10.30;8.10;;;7.30;99.90;;;;;;5014000;28;20517;-57
2021/11/22 08:10:38;;;;;;;11.80;10.57;;;7.40;99.90;;;;;;5013835;28;20735;-56
2021/11/22 08:13:08;;;;;;;10.70;9.00;;;7.30;99.90;;;;;;5013574;28;20582;-58
2021/11/22 08:15:36;;;;;;;14.80;11.03;;;7.30;99.90;;;;;;5010529;28;20425;-56
2021/11/22 08:18:05;;;;;;;12.07;9.83;;;7.30;99.90;;;;;;5013621;28;20912;-57
2021/11/22 08:20:31;;;;;;;9.87;8.77;;;7.20;99.90;;;;;;5013536;28;20914;-58
2021/11/22 08:22:57;;;;;;;11.67;10.47;;;7.20;99.90;;;;;;5013324;28;20435;-56
2021/11/22 08:25:26;;;;;;;12.47;11.17;;;7.30;99.90;;;;;;5013421;28;20421;-59
2021/11/22 08:27:54;;;;;;;12.77;10.50;;;7.10;99.90;;;;;;5013075;28;20408;-57
2021/11/22 08:30:22;;;;;;;10.70;9.63;;;7.10;99.90;;;;;;5013155;28;20470;-58
2021/11/22 08:32:49;;;;;;;11.97;10.53;;;7.30;99.90;;;;;;5012859;28;20413;-58
2021/11/22 08:35:17;;;;;;;12.20;10.37;;;7.30;99.90;;;;;;5013463;28;20409;-59
2021/11/22 08:37:43;;;;;;;11.63;9.67;;;7.20;99.90;;;;;;5013375;28;20489;-57
2021/11/22 08:40:12;;;;;;;12.00;9.40;;;7.10;99.90;;;;;;5008432;28;20992;-59
2021/11/22 08:42:37;;;;;;;10.23;8.90;;;7.30;99.90;;;;;;5006191;28;20415;-57
2021/11/22 08:45:04;;;;;;;15.60;11.77;;;7.20;99.90;;;;;;5012929;28;20759;-58
2021/11/22 08:47:30;;;;;;;17.50;10.30;;;7.30;99.90;;;;;;5012988;28;20180;-55
2021/11/22 08:49:56;;;;;;;14.37;11.07;;;7.30;99.90;;;;;;5032933;23;20585;-62
2021/11/22 08:52:23;;;;;;;12.20;9.67;;;7.50;99.90;;;;;;4984546;28;20571;-63
2021/11/22 08:54:49;;;;;;;13.07;9.83;;;7.40;99.90;;;;;;4978302;28;20961;-63
2021/11/22 08:57:15;;;;;;;14.80;10.73;;;7.30;99.90;;;;;;4960897;28;20592;-64
2021/11/22 08:59:41;;;;;;;13.53;11.10;;;7.40;99.90;;;;;;4978287;28;20429;-62
2021/11/22 09:02:08;;;;;;;12.70;10.37;;;7.60;99.90;;;;;;4978645;28;20411;-61
2021/11/22 09:04:34;;;;;;;14.10;9.93;;;7.70;99.90;;;;;;4977550;28;20755;-61
2021/11/22 09:07:00;;;;;;;11.60;9.57;;;7.60;99.90;;;;;;4978861;28;20430;-63
2021/11/22 09:09:26;;;;;;;11.67;9.40;;;7.50;99.90;;;;;;4977659;28;20189;-63
2021/11/22 09:11:52;;;;;;;12.43;9.53;;;7.50;99.90;;;;;;4977698;28;20191;-63
2021/11/22 09:14:17;;;;;;;12.00;9.33;;;7.60;99.90;;;;;;4978345;28;20863;-62
2021/11/22 09:16:43;;;;;;;9.70;8.70;;;7.70;99.90;;;;;;4977735;28;20454;-61
2021/11/22 09:19:09;;;;;;;12.33;10.03;;;7.70;99.90;;;;;;4977633;28;20175;-60
2021/11/22 09:21:35;;;;;;;11.67;8.50;;;7.60;99.90;;;;;;5016981;28;20413;-61
2021/11/22 09:24:03;;;;;;;11.00;9.30;;;7.60;99.90;;;;;;4991183;28;20727;-62
2021/11/22 09:26:30;;;;;;;13.80;10.90;;;7.70;99.90;;;;;;4996362;28;20423;-61
2021/11/22 09:28:56;;;;;;;12.43;10.80;;;7.60;99.90;;;;;;4997621;28;20409;-60
2021/11/22 09:31:22;;;;;;;9.43;8.43;;;7.60;99.90;;;;;;4996776;28;20567;-62
2021/11/22 09:33:50;;;;;;;11.17;9.37;;;7.60;99.90;;;;;;4996722;28;20407;-62
2021/11/22 09:36:17;;;;;;;11.47;9.70;;;7.70;99.90;;;;;;4996741;28;20615;-62
2021/11/22 09:38:42;;;;;;;13.33;9.33;;;7.70;99.90;;;;;;4997100;28;20410;-63
2021/11/22 09:41:09;;;;;;;13.63;10.13;;;7.60;99.90;;;;;;4996699;28;20575;-61
2021/11/22 09:43:37;;;;;;;10.17;8.90;;;7.60;99.90;;;;;;4997145;28;20583;-62
2021/11/22 09:46:03;;;;;;;11.57;8.87;;;7.60;99.90;;;;;;4996954;28;20426;-62
2021/11/22 09:48:29;;;;;;;11.37;10.27;;;7.60;99.90;;;;;;4996954;28;20410;-63
2021/11/22 09:50:55;;;;;;;13.00;10.70;;;7.60;99.90;;;;;;5010559;28;20817;-62
2021/11/22 09:53:21;;;;;;;11.20;8.97;;;7.90;99.90;;;;;;5016298;28;20211;-63
2021/11/22 09:55:47;;;;;;;11.27;9.63;;;7.90;99.90;;;;;;5016292;28;20810;-63
2021/11/22 09:58:13;;;;;;;9.93;8.93;;;7.90;99.90;;;;;;4998322;28;20422;-62
2021/11/22 10:00:42;;;;;;;16.20;10.20;;;7.80;99.90;;;;;;4980699;28;20436;-61
2021/11/22 10:03:22;;;;;;;10.07;9.07;;;7.80;99.90;;;;;;4975772;28;20865;-61
2021/11/22 10:05:59;;;;;;;11.13;10.00;;;7.80;99.90;;;;;;4976455;28;20778;-60
2021/11/22 10:08:25;;;;;;;13.07;9.60;;;8.00;99.90;;;;;;4995344;28;20499;-62
2021/11/22 10:11:00;;;;;;;10.70;9.60;;;8.00;99.90;;;;;;4996752;28;20948;-62
2021/11/22 10:13:32;;;;;;;12.93;10.13;;;8.00;99.90;;;;;;4996424;28;20421;-62
2021/11/22 10:16:07;;;;;;;12.70;10.77;;;8.10;99.90;;;;;;4996174;28;20574;-57
2021/11/22 10:18:38;;;;;;;10.63;9.53;;;8.20;99.90;;;;;;4996470;28;20453;-59
2021/11/22 10:21:06;;;;;;;14.30;10.13;;;8.20;99.90;;;;;;5011418;28;20469;-56
2021/11/22 10:23:33;;;;;;;10.97;9.47;;;8.40;99.90;;;;;;5015600;28;20420;-58
2021/11/22 10:25:59;;;;;;;13.13;8.90;;;8.30;99.90;;;;;;5015670;28;20414;-57
2021/11/22 10:28:27;;;;;;;12.10;9.90;;;8.40;99.90;;;;;;5015750;28;20417;-55
2021/11/22 10:31:00;;;;;;;14.17;11.57;;;8.50;99.90;;;;;;4997953;28;20231;-56
2021/11/22 10:33:29;;;;;;;14.77;11.10;;;8.40;99.90;;;;;;5015481;28;20414;-57
2021/11/22 10:35:58;;;;;;;13.40;10.70;;;8.40;99.90;;;;;;4997406;28;21037;-54
2021/11/22 10:38:29;;;;;;;10.77;9.23;;;8.60;99.90;;;;;;5015338;28;20482;-58
2021/11/22 10:41:00;;;;;;;11.73;10.03;;;8.60;99.90;;;;;;5015492;28;20845;-57
2021/11/22 10:43:39;;;;;;;12.43;9.30;;;8.70;99.90;;;;;;5015621;28;20674;-57
2021/11/22 10:46:09;;;;;;;11.30;9.07;;;8.70;99.90;;;;;;5015402;28;20389;-53
2021/11/22 10:48:36;;;;;;;15.80;10.63;;;8.60;99.90;;;;;;5015083;28;20498;-62
2021/11/22 10:51:04;;;;;;;12.83;9.50;;;8.50;99.90;;;;;;5014580;28;20977;-62
2021/11/22 10:53:33;;;;;;;11.93;9.70;;;8.40;99.90;;;;;;5015201;28;20416;-62
2021/11/22 10:56:00;;;;;;;12.57;10.53;;;8.40;99.90;;;;;;5015578;28;20448;-62
2021/11/22 10:58:40;;;;;;;11.30;10.10;;;8.00;99.90;;;;;;5015366;28;20890;-62
2021/11/22 11:01:36;;;;;;;12.20;10.17;;;7.90;99.90;;;;;;5014688;28;20432;-62
2021/11/22 11:04:04;;;;;;;13.77;11.40;;;7.90;99.90;;;;;;4999392;28;20421;-62
2021/11/22 11:06:49;;;;;;;15.27;10.80;;;8.10;99.90;;;;;;4994937;28;20411;-61
2021/11/22 11:09:22;;;;;;;11.97;10.67;;;8.10;99.90;;;;;;4995438;28;20426;-62
2021/11/22 11:11:53;;;;;;;18.83;14.43;;;8.10;99.90;;;;;;4995158;28;20764;-62
2021/11/22 11:14:19;;;;;;;14.37;12.40;;;8.00;99.90;;;;;;4994641;28;20431;-60
2021/11/22 11:16:45;;;;;;;13.30;10.47;;;8.00;99.90;;;;;;4994831;28;20462;-62
2021/11/22 11:19:14;;;;;;;13.30;11.60;;;7.90;99.90;;;;;;4994763;28;20465;-62
2021/11/22 11:21:45;;;;;;;14.57;9.80;;;8.10;99.90;;;;;;5014416;28;20175;-62
2021/11/22 11:24:12;;;;;;;15.80;11.53;;;8.20;99.90;;;;;;5014722;28;20399;-62
2021/11/22 11:26:39;;;;;;;11.60;9.90;;;8.40;99.90;;;;;;5014700;28;20743;-62
2021/11/22 11:29:06;;;;;;;13.37;11.50;;;8.40;99.90;;;;;;5014802;28;20781;-61
2021/11/22 11:31:34;;;;;;;12.30;9.43;;;8.50;99.90;;;;;;5014331;28;20412;-61
2021/11/22 11:34:04;;;;;;;12.67;10.93;;;8.30;99.90;;;;;;5014678;28;20489;-61
2021/11/22 11:36:45;;;;;;;12.13;10.77;;;8.20;99.90;;;;;;4990064;28;20451;-62
2021/11/22 11:39:54;;;;;;;13.40;10.37;;;8.10;99.90;;;;;;4994634;28;20396;-61
2021/11/22 11:43:02;;;;;;;11.30;9.23;;;7.90;99.90;;;;;;4994986;28;20454;-61
2021/11/22 11:45:58;;;;;;;12.70;10.37;;;7.90;99.90;;;;;;4972545;28;20427;-53
2021/11/22 11:48:54;;;;;;;11.00;9.57;;;7.90;99.90;;;;;;4994758;28;20411;-64
2021/11/22 11:51:27;;;;;;;16.67;9.10;;;8.00;99.90;;;;;;5012239;28;20452;-61
2021/11/22 11:54:14;;;;;;;11.20;10.07;;;8.00;99.90;;;;;;5014643;28;20397;-57
2021/11/22 11:56:50;;;;;;;10.63;9.53;;;8.00;99.90;;;;;;5014099;28;20446;-57
2021/11/22 11:59:19;;;;;;;11.63;9.60;;;7.90;99.90;;;;;;5014257;28;20770;-61
2021/11/22 12:02:18;;;;;;;12.30;9.13;;;8.00;99.90;;;;;;5013935;28;20407;-62
2021/11/22 12:04:50;;;;;;;11.00;8.83;;;7.90;99.90;;;;;;4959425;28;20416;-54
2021/11/22 12:07:33;;;;;;;8.87;7.80;;;8.00;99.90;;;;;;4974711;28;20794;-56
2021/11/22 12:10:08;;;;;;;9.50;8.50;;;7.90;99.90;;;;;;4974664;28;20428;-55
2021/11/22 12:12:38;;;;;;;9.37;8.40;;;7.90;99.90;;;;;;4974657;28;20407;-57
2021/11/22 12:15:18;;;;;;;10.47;8.97;;;8.00;99.90;;;;;;4974506;28;20595;-56
2021/11/22 12:17:44;;;;;;;9.27;8.20;;;7.90;99.90;;;;;;4974893;28;20448;-57
2021/11/22 12:20:18;;;;;;;9.10;7.30;;;8.10;99.90;;;;;;4990729;28;20432;-57
2021/11/22 12:22:54;;;;;;;9.50;7.67;;;8.00;99.90;;;;;;5013881;28;20574;-56
2021/11/22 12:25:38;;;;;;;11.10;8.70;;;7.90;99.90;;;;;;5013680;28;20381;-56
2021/11/22 12:28:19;;;;;;;9.30;7.70;;;8.10;99.90;;;;;;5013427;28;20403;-57
2021/11/22 12:30:47;;;;;;;9.40;7.60;;;8.20;99.90;;;;;;4996026;28;20441;-57
2021/11/22 12:33:25;;;;;;;7.73;7.00;;;8.10;99.90;;;;;;5013822;28;20469;-58
2021/11/22 12:35:59;;;;;;;7.90;7.10;;;8.00;99.90;;;;;;5013402;28;20448;-62
2021/11/22 12:38:26;;;;;;;8.87;6.83;;;8.10;99.90;;;;;;5013743;28;20393;-62
2021/11/22 12:40:55;;;;;;;8.00;7.20;;;8.10;99.90;;;;;;5013851;28;20438;-61
2021/11/22 12:43:45;;;;;;;9.40;7.07;;;8.10;99.90;;;;;;5014003;28;20493;-60
2021/11/22 12:46:14;;;;;;;6.70;6.00;;;7.90;99.90;;;;;;5013994;28;20394;-62
2021/11/22 12:48:42;;;;;;;8.37;6.20;;;7.90;99.90;;;;;;5013973;28;20405;-62